Accueil
METAR-TAF:

METAR-TAF

Aéroports :

Aéroport de Francfort-Hahn

Hahn, Allemagne

latitude: 49-57N, longitude: 007-16E, altitude: 491 m

Observation

Le bulletin a été fait il y a 30 minutes, à 07:20 UTC
Vent 6 kt de ouest/sud-ouest, variant entre sud-ouest et ouest/nord-ouest
Température 15°C
Humidité 72%
Pression 1023 hPa
Visibilité 10 km ou plus
Nuages épars à une hauteur de 3700 ft
Nuages fragmentés à une hauteur de 5000 ft

METAR: EDFH 180720Z 25006KT 220V290 9999 SCT037 BKN050 15/10 Q1023

Heure: 09:50 (07:50 UTC)

Prévision

Le bulletin a été fait il y a 2 heures et 50 minutes, à 05:00 UTC
Prévision valable du 18 à 06 UTC au 19 à 06 UTC
Vent 7 kt de sud-ouest
Visibilité 10 km ou plus
pas de nuages en-dessous de 1500 mètres et pas de cumulonimbus.

TAF: EDFH 180500Z 1806/1906 23007KT CAVOK

Observations et prévisions météorologiques de plus de 4000 aéroports (messages METAR et TAF).

Les stations disponibles sont représentées par des disques jaunes et rouges sur la carte.

Passer la souris dessus pour voir le nom de la station.

Cliquer dessus pour voir les observations et prévisions météorologiques.

Pour changer de carte: cliquez sur les boutons verts avec une croix noire pour zoomer, sur le bouton vert avec un tiret pour effectuer un zoom arrière, ou sur les flèches vertes pour les cartes adjacentes.


METAR-TAF: